Time;durP1;ratioP1;P1;durP2;ratioP2;P2;SDS_P1;SDS_P2;PMS_P1;PMS_P2;Temp;Humidity;BMP_temperature;BMP_pressure;BME280_temperature;BME280_humidity;BME280_pressure;Samples;Min_cycle;Max_cycle;Signal;HPM_P1;HPM_P2
2021/12/27 00:00:28;;;;;;;43.92;20.60;;;;;;;-5.45;100.00;97651.66;4075548;28;20051;-71
2021/12/27 00:02:28;;;;;;;45.85;21.23;;;;;;;-5.43;100.00;97646.78;4073133;28;20122;-70
2021/12/27 00:04:29;;;;;;;41.58;21.55;;;;;;;-5.39;100.00;97636.19;4079122;28;20125;-70
2021/12/27 00:06:30;;;;;;;45.72;21.83;;;;;;;-5.40;100.00;97643.47;4079328;28;20051;-70
2021/12/27 00:08:31;;;;;;;42.10;20.95;;;;;;;-5.42;100.00;97631.41;4072783;28;20048;-71
2021/12/27 00:10:31;;;;;;;46.53;19.23;;;;;;;-5.39;100.00;97637.00;4078466;28;20207;-70
2021/12/27 00:12:32;;;;;;;43.25;20.80;;;;;;;-5.39;100.00;97637.00;4074421;28;20047;-71
2021/12/27 00:14:32;;;;;;;41.33;20.77;;;;;;;-5.38;100.00;97635.91;4073038;28;20145;-70
2021/12/27 00:16:32;;;;;;;40.58;20.02;;;;;;;-5.38;100.00;97635.91;4085035;28;20425;-71
2021/12/27 00:18:33;;;;;;;45.33;20.45;;;;;;;-5.37;100.00;97634.81;4078310;28;20071;-70
2021/12/27 00:20:33;;;;;;;40.38;19.80;;;;;;;-5.36;100.00;97627.53;4087275;28;20496;-71
2021/12/27 00:22:34;;;;;;;45.78;20.83;;;;;;;-5.34;100.00;97624.53;4085948;28;20504;-71
2021/12/27 00:24:34;;;;;;;46.60;21.30;;;;;;;-5.33;100.00;97632.31;4073967;28;20043;-71
2021/12/27 00:26:35;;;;;;;44.42;21.42;;;;;;;-5.34;100.00;97621.84;4072492;28;20052;-71
2021/12/27 00:28:35;;;;;;;49.20;23.05;;;;;;;-5.33;100.00;97629.63;4075557;28;20126;-70
2021/12/27 00:30:38;;;;;;;47.40;23.55;;;;;;;-5.32;100.00;97627.72;4073079;28;20064;-71
2021/12/27 00:32:39;;;;;;;;;;;;;;;-5.30;100.00;97630.91;4074907;28;20063;-71
2021/12/27 00:34:40;;;;;;;36.10;17.80;;;;;;;-5.30;100.00;97630.91;4078713;28;19925;-71
2021/12/27 00:36:40;;;;;;;48.83;20.60;;;;;;;-5.34;100.00;97627.22;4073916;28;20056;-71
2021/12/27 00:38:41;;;;;;;44.33;21.40;;;;;;;-5.31;100.00;97626.63;4073310;28;20063;-71
2021/12/27 00:40:41;;;;;;;39.25;19.80;;;;;;;-5.33;100.00;97624.22;4072569;28;20346;-71
2021/12/27 00:42:42;;;;;;;40.90;19.95;;;;;;;-5.31;100.00;97616.63;4072635;28;20127;-71
2021/12/27 00:44:42;;;;;;;45.60;20.83;;;;;;;-5.30;100.00;97615.53;4073683;28;20055;-71
2021/12/27 00:46:42;;;;;;;40.00;19.23;;;;;;;-5.30;100.00;97612.03;4073365;28;20055;-71
2021/12/27 00:48:43;;;;;;;42.17;19.45;;;;;;;-5.30;100.00;97612.03;4071857;28;20055;-70
2021/12/27 00:50:44;;;;;;;48.10;22.77;;;;;;;-5.30;100.00;97603.97;4076418;28;20036;-70
2021/12/27 00:52:46;;;;;;;42.20;20.63;;;;;;;-5.29;100.00;97611.78;4074431;28;20094;-71
2021/12/27 00:54:46;;;;;;;49.75;20.95;;;;;;;-5.27;100.00;97611.47;4076572;28;20488;-70
2021/12/27 00:56:47;;;;;;;46.85;21.67;;;;;;;-5.26;100.00;97602.28;4074312;28;20399;-70
2021/12/27 00:58:47;;;;;;;39.05;19.95;;;;;;;-5.28;100.00;97601.78;4075937;28;20122;-70
2021/12/27 01:00:48;;;;;;;50.60;23.27;;;;;;;-5.28;100.00;97593.69;4082489;28;20063;-70
2021/12/27 01:02:49;;;;;;;46.33;21.58;;;;;;;-5.27;100.00;97608.78;4084330;28;20388;-69
2021/12/27 01:04:50;;;;;;;39.55;19.02;;;;;;;-5.29;100.00;97600.19;4077537;28;20082;-70
2021/12/27 01:06:50;;;;;;;42.50;18.85;;;;;;;-5.28;100.00;97599.88;4074523;28;20358;-70
2021/12/27 01:08:52;;;;;;;43.35;20.48;;;;;;;-5.27;100.00;97595.28;4076834;28;20055;-70
2021/12/27 01:11:10;;;;;;;44.00;21.95;;;;;;;-5.27;100.00;97600.69;4082259;28;20542;-71
2021/12/27 01:13:39;;;;;;;37.13;18.77;;;;;;;-5.27;100.00;97585.31;4077985;28;20039;-71
2021/12/27 01:17:43;;;;;;;49.05;20.95;;;;;;;-5.24;100.00;97570.41;4076772;28;20039;-71
2021/12/27 01:19:43;;;;;;;42.42;21.00;;;;;;;-5.21;100.00;97577.94;4075693;28;20047;-71
2021/12/27 01:21:44;;;;;;;44.40;20.48;;;;;;;-5.21;100.00;97586.03;4076634;28;20062;-71
2021/12/27 01:23:45;;;;;;;42.30;19.13;;;;;;;-5.23;100.00;97580.09;4076111;28;20495;-71
2021/12/27 01:25:45;;;;;;;39.67;20.27;;;;;;;-5.20;100.00;97576.84;4075204;28;20054;-70
2021/12/27 01:27:46;;;;;;;39.53;21.25;;;;;;;-5.18;100.00;97585.41;4076190;28;20044;-71
2021/12/27 01:29:46;;;;;;;43.75;19.70;;;;;;;-5.20;100.00;97583.03;4076281;28;20073;-71
2021/12/27 01:31:47;;;;;;;43.83;18.45;;;;;;;-5.20;100.00;97584.91;4075820;28;20048;-70
2021/12/27 01:33:47;;;;;;;40.13;19.65;;;;;;;-5.21;100.00;97581.44;4077234;28;20035;-71
2021/12/27 01:35:48;;;;;;;41.78;20.33;;;;;;;-5.24;100.00;97571.22;4074530;28;20087;-71
2021/12/27 01:37:50;;;;;;;42.55;18.73;;;;;;;-5.22;100.00;97576.31;4075749;28;20617;-71
2021/12/27 01:39:51;;;;;;;44.40;21.45;;;;;;;-5.24;100.00;97579.31;4077412;28;20521;-71
2021/12/27 01:41:52;;;;;;;37.22;18.83;;;;;;;-5.27;100.00;97571.03;4073753;28;20040;-70
2021/12/27 01:43:54;;;;;;;43.35;21.40;;;;;;;-5.26;100.00;97570.72;4077249;28;20039;-71
2021/12/27 01:45:58;;;;;;;44.42;22.25;;;;;;;-5.27;100.00;97569.13;4077343;28;20086;-71
2021/12/27 01:47:58;;;;;;;46.38;22.00;;;;;;;-5.30;100.00;97579.69;4074876;28;20360;-69
2021/12/27 01:49:59;;;;;;;46.72;20.63;;;;;;;-5.29;100.00;97570.53;4075460;28;20043;-70
2021/12/27 01:51:59;;;;;;;44.92;20.55;;;;;;;-5.29;100.00;97568.63;4079756;28;20700;-71
2021/12/27 01:54:00;;;;;;;44.08;21.13;;;;;;;-5.29;100.00;97559.75;4082094;28;20533;-70
2021/12/27 01:56:00;;;;;;;39.03;19.48;;;;;;;-5.27;100.00;97565.63;4075361;28;20043;-71
2021/12/27 01:58:02;;;;;;;49.15;20.67;;;;;;;-5.27;100.00;97566.44;4076210;28;20039;-71
2021/12/27 02:00:05;;;;;;;43.10;21.95;;;;;;;-5.25;100.00;97572.31;4074816;28;20036;-71
2021/12/27 02:02:05;;;;;;;40.70;21.65;;;;;;;-5.24;100.00;97565.81;4076846;28;20035;-71
2021/12/27 02:04:05;;;;;;;46.35;23.65;;;;;;;-5.23;100.00;97569.31;4072446;28;20065;-71
2021/12/27 02:06:06;;;;;;;50.42;23.55;;;;;;;-5.23;100.00;97564.72;4073868;28;20043;-71
2021/12/27 02:08:07;;;;;;;42.97;20.63;;;;;;;-5.20;100.00;97564.16;4077240;28;20048;-71
2021/12/27 02:10:10;;;;;;;50.42;23.98;;;;;;;-5.19;100.00;97560.34;4073321;28;20062;-71
2021/12/27 02:12:10;;;;;;;51.95;23.30;;;;;;;-5.18;100.00;97559.25;4072805;28;20421;-71
2021/12/27 02:14:11;;;;;;;46.05;21.85;;;;;;;-5.19;100.00;97563.03;4073644;28;20195;-71
2021/12/27 02:16:15;;;;;;;46.47;22.02;;;;;;;-5.18;100.00;97567.34;4072745;28;20070;-71
2021/12/27 02:18:15;;;;;;;45.30;23.80;;;;;;;-5.18;100.00;97570.03;4072096;28;20487;-71
2021/12/27 02:20:18;;;;;;;50.50;22.23;;;;;;;-5.17;100.00;97557.34;4073194;28;20032;-71
2021/12/27 02:22:21;;;;;;;38.72;20.40;;;;;;;-5.15;100.00;97555.16;4073029;28;20043;-71
2021/12/27 02:24:22;;;;;;;42.80;20.05;;;;;;;-5.13;100.00;97564.56;4073630;28;20050;-71
2021/12/27 02:26:22;;;;;;;45.17;20.58;;;;;;;-5.12;100.00;97558.06;4072931;28;20251;-71
2021/12/27 02:28:23;;;;;;;43.53;21.17;;;;;;;-5.10;100.00;97560.47;4087752;28;20118;-71
2021/12/27 02:30:24;;;;;;;44.85;21.45;;;;;;;-5.08;100.00;97555.56;4074882;28;20051;-71
2021/12/27 02:32:24;;;;;;;46.22;20.42;;;;;;;-5.04;100.00;97555.78;4073400;28;20048;-70
2021/12/27 02:34:24;;;;;;;51.60;23.27;;;;;;;-5.00;100.00;97554.84;4074103;28;20070;-71
2021/12/27 02:36:25;;;;;;;44.55;22.48;;;;;;;-4.97;100.00;97546.16;4072474;28;20051;-70
2021/12/27 02:38:31;;;;;;;46.33;21.45;;;;;;;-4.97;100.00;97545.34;4073763;28;20046;-71
2021/12/27 02:40:33;;;;;;;50.53;23.15;;;;;;;-4.93;100.00;97539.06;4078122;28;20063;-71
2021/12/27 02:42:33;;;;;;;55.15;25.50;;;;;;;-4.90;100.00;97548.47;4073415;28;20495;-71
2021/12/27 02:44:34;;;;;;;46.97;22.23;;;;;;;-4.86;100.00;97552.97;4071605;28;20220;-71
2021/12/27 02:46:35;;;;;;;53.42;23.83;;;;;;;-4.84;100.00;97547.25;4072975;28;20531;-71
2021/12/27 02:48:44;;;;;;;50.13;24.50;;;;;;;-4.83;100.00;97540.78;4073169;28;20506;-71
2021/12/27 02:50:47;;;;;;;51.53;23.40;;;;;;;-4.83;100.00;97536.16;4074567;28;20054;-71
2021/12/27 02:52:47;;;;;;;45.25;22.52;;;;;;;-4.81;100.00;97533.97;4072136;28;20075;-71
2021/12/27 02:54:47;;;;;;;49.55;24.10;;;;;;;-4.78;100.00;97531.78;4072583;28;20526;-71
2021/12/27 02:56:48;;;;;;;44.88;22.65;;;;;;;-4.79;100.00;97533.69;4072602;28;20538;-71
2021/12/27 02:58:49;;;;;;;49.63;23.95;;;;;;;-4.77;100.00;97536.06;4072544;28;20055;-71
2021/12/27 03:00:49;;;;;;;44.55;21.70;;;;;;;-4.72;100.00;97527.84;4072647;28;20194;-71
2021/12/27 03:02:51;;;;;;;45.10;21.02;;;;;;;-4.72;100.00;97530.56;4077567;28;20508;-71
2021/12/27 03:04:51;;;;;;;48.80;23.30;;;;;;;-4.71;100.00;97527.59;4077592;28;20475;-71
2021/12/27 03:06:52;;;;;;;49.17;22.85;;;;;;;-4.72;100.00;97517.06;4080019;28;20113;-71
2021/12/27 03:08:52;;;;;;;47.45;22.20;;;;;;;-4.71;100.00;97519.47;4074725;28;20198;-71
2021/12/27 03:10:55;;;;;;;42.63;20.95;;;;;;;-4.70;100.00;97515.69;4079485;28;20150;-70
2021/12/27 03:12:57;;;;;;;43.63;21.13;;;;;;;-4.68;100.00;97515.38;4076629;28;20500;-70
2021/12/27 03:14:58;;;;;;;42.70;21.30;;;;;;;-4.67;100.00;97514.25;4071295;28;20058;-71
2021/12/27 03:16:58;;;;;;;46.42;22.45;;;;;;;-4.66;100.00;97505.06;4071435;28;20134;-70
2021/12/27 03:18:58;;;;;;;57.33;26.05;;;;;;;-4.60;100.00;97506.56;4072614;28;20044;-71
2021/12/27 03:20:59;;;;;;;50.58;23.50;;;;;;;-4.57;100.00;97503.25;4072347;28;20507;-71
2021/12/27 03:22:59;;;;;;;44.63;21.73;;;;;;;-4.55;100.00;97499.16;4075150;28;20679;-71
2021/12/27 03:25:00;;;;;;;46.72;22.58;;;;;;;-4.54;100.00;97506.16;4154054;28;20115;-71
2021/12/27 03:27:00;;;;;;;49.28;23.80;;;;;;;-4.53;100.00;97499.66;4071141;28;20551;-70
2021/12/27 03:29:01;;;;;;;49.70;22.45;;;;;;;-4.50;100.00;97497.44;4072239;28;20166;-71
2021/12/27 03:31:02;;;;;;;51.80;23.20;;;;;;;-4.47;100.00;97504.91;4071858;28;20051;-71
2021/12/27 03:33:05;;;;;;;51.97;24.65;;;;;;;-4.46;100.00;97491.13;4073644;28;20036;-71
2021/12/27 03:35:09;;;;;;;53.83;22.58;;;;;;;-4.43;100.00;97495.91;4072873;28;20097;-71
2021/12/27 03:37:10;;;;;;;48.28;21.92;;;;;;;-4.40;100.00;97487.19;4070910;28;20043;-71
2021/12/27 03:39:10;;;;;;;53.70;24.63;;;;;;;-4.37;100.00;97491.22;4072001;28;20059;-71
2021/12/27 03:41:19;;;;;;;52.30;23.52;;;;;;;-4.34;100.00;97482.50;4086514;28;20505;-71
2021/12/27 03:43:19;;;;;;;50.65;24.77;;;;;;;-4.30;100.00;97492.38;4080370;28;20126;-71
2021/12/27 03:45:26;;;;;;;49.72;23.67;;;;;;;-4.31;100.00;97484.56;4076135;28;20130;-71
2021/12/27 03:47:26;;;;;;;47.72;23.20;;;;;;;-4.29;100.00;97493.97;4071800;28;20143;-71
2021/12/27 03:49:26;;;;;;;55.38;24.77;;;;;;;-4.28;100.00;97484.78;4071965;28;20519;-71
2021/12/27 03:51:27;;;;;;;51.40;22.80;;;;;;;-4.29;100.00;97485.09;4072933;28;20055;-71
2021/12/27 03:53:29;;;;;;;54.80;26.00;;;;;;;-4.27;100.00;97485.56;4071974;28;20146;-71
2021/12/27 03:55:29;;;;;;;55.38;24.02;;;;;;;-4.25;100.00;97483.34;4072436;28;20571;-71
2021/12/27 03:57:32;;;;;;;53.20;24.13;;;;;;;-4.28;100.00;97478.56;4070618;28;20083;-71
2021/12/27 04:01:45;;;;;;;55.17;23.17;;;;;;;-4.27;100.00;97475.56;4075778;28;20378;-71
2021/12/27 04:03:48;;;;;;;60.63;25.55;;;;;;;-4.26;100.00;97473.66;4072066;28;20046;-71
2021/12/27 04:05:49;;;;;;;48.78;24.23;;;;;;;-4.28;100.00;97473.16;4071502;28;20051;-71
2021/12/27 04:07:59;;;;;;;50.25;22.35;;;;;;;-4.26;100.00;97479.84;4071334;28;20043;-71
2021/12/27 04:10:00;;;;;;;52.60;25.88;;;;;;;-4.25;100.00;97475.25;4077768;28;20044;-72
2021/12/27 04:12:00;;;;;;;44.13;22.92;;;;;;;-4.22;100.00;97476.53;4071614;28;20487;-71
2021/12/27 04:14:04;;;;;;;45.45;20.85;;;;;;;-4.22;100.00;97476.53;4071699;28;20298;-71
2021/12/27 04:16:05;;;;;;;45.78;23.08;;;;;;;-4.19;100.00;97474.03;4074908;28;20030;-71
2021/12/27 04:18:09;;;;;;;49.92;22.17;;;;;;;-4.18;100.00;97478.31;4071763;28;20126;-71
2021/12/27 04:20:10;;;;;;;48.92;23.55;;;;;;;-4.17;100.00;97481.81;4070973;28;20035;-71
2021/12/27 04:22:11;;;;;;;51.90;22.80;;;;;;;-4.14;100.00;97483.91;4073282;28;20039;-71
2021/12/27 04:24:12;;;;;;;47.75;23.05;;;;;;;-4.12;100.00;97479.00;4074499;28;20028;-71
2021/12/27 04:26:12;;;;;;;45.38;21.65;;;;;;;-4.10;100.00;97483.00;4072572;28;20508;-71
2021/12/27 04:28:13;;;;;;;51.42;23.33;;;;;;;-4.08;100.00;97475.38;4073763;28;20093;-71
2021/12/27 04:30:15;;;;;;;49.35;23.45;;;;;;;-4.08;100.00;97478.06;4075232;28;20696;-71
2021/12/27 04:32:15;;;;;;;51.50;24.35;;;;;;;-4.02;100.00;97478.75;4075296;28;20028;-70
2021/12/27 04:34:16;;;;;;;50.78;25.40;;;;;;;-3.98;100.00;97483.22;4075815;28;20135;-71
2021/12/27 04:36:16;;;;;;;53.47;26.15;;;;;;;-3.94;100.00;97474.53;4075386;28;20411;-71
2021/12/27 04:38:16;;;;;;;52.47;24.45;;;;;;;-3.89;100.00;97477.88;4074057;28;20039;-70
2021/12/27 04:40:20;;;;;;;51.97;24.55;;;;;;;-3.88;100.00;97474.09;4073170;28;20046;-71
2021/12/27 04:42:21;;;;;;;52.70;24.27;;;;;;;-3.87;100.00;97472.19;4075454;28;20808;-71
2021/12/27 04:44:21;;;;;;;60.38;25.88;;;;;;;-3.87;100.00;97469.47;4082316;28;20059;-71
2021/12/27 04:46:22;;;;;;;56.97;26.33;;;;;;;-3.80;100.00;97467.94;4083788;28;20050;-71
2021/12/27 04:48:24;;;;;;;51.97;23.75;;;;;;;-3.71;100.00;97473.41;4074713;28;20403;-71
2021/12/27 04:50:25;;;;;;;52.78;26.05;;;;;;;-3.75;100.00;97467.00;4074501;28;20549;-71
2021/12/27 04:52:25;;;;;;;57.55;23.55;;;;;;;-3.76;100.00;97466.19;4082048;28;20503;-71
2021/12/27 04:54:26;;;;;;;48.47;24.67;;;;;;;-3.75;100.00;97475.09;4083933;28;20055;-71
2021/12/27 04:56:26;;;;;;;61.55;26.23;;;;;;;-3.70;100.00;97472.28;4077945;28;20051;-71
2021/12/27 04:58:26;;;;;;;50.60;24.17;;;;;;;-3.70;100.00;97478.50;4089141;28;20043;-71
2021/12/27 05:00:27;;;;;;;53.88;24.33;;;;;;;-3.71;100.00;97471.50;4090884;28;20035;-71
2021/12/27 05:02:27;;;;;;;57.83;25.75;;;;;;;-3.68;100.00;97472.75;4089976;28;20118;-71
2021/12/27 05:04:28;;;;;;;53.47;25.17;;;;;;;-3.67;100.00;97466.25;4100816;28;20059;-71
2021/12/27 05:06:28;;;;;;;51.55;23.88;;;;;;;-3.64;100.00;97465.66;4102879;28;20051;-71
2021/12/27 05:08:29;;;;;;;51.47;25.10;;;;;;;-3.61;100.00;97459.63;4098576;28;20473;-71
2021/12/27 05:10:30;;;;;;;55.33;24.75;;;;;;;-3.60;100.00;97458.50;4093368;28;20039;-71
2021/12/27 05:12:31;;;;;;;49.30;24.30;;;;;;;-3.54;100.00;97464.56;4092469;28;20093;-71
2021/12/27 05:14:31;;;;;;;52.92;25.08;;;;;;;-3.53;100.00;97460.75;4091453;28;20043;-71
2021/12/27 05:16:32;;;;;;;60.17;26.10;;;;;;;-3.54;100.00;97454.56;4107741;28;20055;-71
2021/12/27 05:18:32;;;;;;;51.90;24.27;;;;;;;-3.51;100.00;97455.84;4101900;28;20454;-71
2021/12/27 05:20:33;;;;;;;52.95;23.77;;;;;;;-3.53;100.00;97450.75;4099032;28;20043;-71
2021/12/27 05:22:33;;;;;;;42.80;23.58;;;;;;;-3.52;100.00;97448.84;4091707;28;20105;-71
2021/12/27 05:24:33;;;;;;;58.72;27.00;;;;;;;-3.52;100.00;97441.53;4091380;28;20040;-71
2021/12/27 05:26:34;;;;;;;54.50;25.70;;;;;;;-3.47;100.00;97441.41;4093068;28;20050;-71
2021/12/27 05:28:34;;;;;;;52.25;23.95;;;;;;;-3.45;100.00;97449.19;4089949;28;20059;-71
2021/12/27 05:30:35;;;;;;;49.78;23.00;;;;;;;-3.46;100.00;97439.47;4090116;28;20131;-71
2021/12/27 05:32:38;;;;;;;47.35;22.90;;;;;;;-3.47;100.00;97441.41;4089483;28;20234;-71
2021/12/27 05:34:38;;;;;;;47.22;22.55;;;;;;;-3.48;100.00;97431.66;4088859;28;20326;-71
2021/12/27 05:36:39;;;;;;;44.10;22.70;;;;;;;-3.46;100.00;97428.66;4089621;28;20474;-71
2021/12/27 05:38:40;;;;;;;47.95;22.63;;;;;;;-3.46;100.00;97429.47;4091725;28;20569;-71
2021/12/27 05:40:41;;;;;;;46.03;24.20;;;;;;;-3.42;100.00;97437.72;4093743;28;20087;-71
2021/12/27 05:42:41;;;;;;;51.92;23.48;;;;;;;-3.38;100.00;97429.81;4092628;28;20051;-71
2021/12/27 05:44:42;;;;;;;52.22;24.50;;;;;;;-3.37;100.00;97431.41;4089561;28;20120;-71
2021/12/27 05:46:43;;;;;;;44.15;22.38;;;;;;;-3.36;100.00;97435.69;4091793;28;20058;-71
2021/12/27 05:48:43;;;;;;;47.17;22.90;;;;;;;-3.37;100.00;97432.19;4098767;28;20162;-69
2021/12/27 05:50:43;;;;;;;39.95;21.05;;;;;;;-3.40;100.00;97430.09;4091510;28;20062;-71
2021/12/27 05:52:44;;;;;;;43.55;22.85;;;;;;;-3.39;100.00;97429.00;4092256;28;20557;-71
2021/12/27 05:54:45;;;;;;;47.35;22.52;;;;;;;-3.40;100.00;97425.50;4094245;28;20146;-71
2021/12/27 05:56:45;;;;;;;45.67;21.60;;;;;;;-3.36;100.00;97420.25;4092031;28;20061;-71
2021/12/27 05:58:45;;;;;;;46.33;21.95;;;;;;;-3.36;100.00;97417.56;4089228;28;20099;-71
2021/12/27 06:00:47;;;;;;;53.80;24.25;;;;;;;-3.37;100.00;97424.09;4095812;28;20526;-70
2021/12/27 06:02:48;;;;;;;42.85;21.02;;;;;;;-3.37;100.00;97428.69;4092750;28;20501;-71
2021/12/27 06:04:49;;;;;;;44.90;21.90;;;;;;;-3.39;100.00;97420.91;4090758;28;20355;-71
2021/12/27 06:06:49;;;;;;;51.65;23.25;;;;;;;-3.34;100.00;97419.94;4089314;28;20051;-71
2021/12/27 06:08:49;;;;;;;53.88;25.92;;;;;;;-3.33;100.00;97414.22;4089301;28;20066;-70
2021/12/27 06:10:50;;;;;;;62.08;28.67;;;;;;;-3.32;100.00;97423.13;4094426;28;20054;-71
2021/12/27 06:12:50;;;;;;;67.18;31.20;;;;;;;-3.31;100.00;97425.53;4088380;28;20551;-71
2021/12/27 06:14:51;;;;;;;61.05;26.90;;;;;;;-3.33;100.00;97422.34;4090336;28;20051;-71
2021/12/27 06:16:51;;;;;;;52.30;26.45;;;;;;;-3.32;100.00;97425.84;4090714;28;20421;-71
2021/12/27 06:18:51;;;;;;;67.07;29.17;;;;;;;-3.30;100.00;97423.63;4093197;28;20051;-71
2021/12/27 06:20:52;;;;;;;52.80;25.73;;;;;;;-3.31;100.00;97408.50;4090430;28;20043;-70
2021/12/27 06:22:56;;;;;;;49.75;25.25;;;;;;;-3.29;100.00;97415.19;4090459;28;20542;-70
2021/12/27 06:25:03;;;;;;;58.30;26.70;;;;;;;-3.26;100.00;97427.28;4096961;28;20043;-71
2021/12/27 06:27:03;;;;;;;70.43;33.15;;;;;;;-3.24;100.00;97430.47;4087662;28;20044;-71
2021/12/27 06:29:04;;;;;;;57.40;28.77;;;;;;;-3.25;100.00;97432.38;4107567;28;20055;-71
2021/12/27 06:31:05;;;;;;;53.55;27.65;;;;;;;-3.24;100.00;97422.34;4113016;28;20705;-71
2021/12/27 06:33:06;;;;;;;52.97;27.27;;;;;;;-3.21;100.00;97413.63;4105815;28;20134;-71
2021/12/27 06:35:10;;;;;;;54.92;28.55;;;;;;;-3.19;100.00;97428.44;4107851;28;20145;-71
2021/12/27 06:37:11;;;;;;;49.55;25.13;;;;;;;-3.14;100.00;97427.50;4099750;28;20047;-71
2021/12/27 06:39:11;;;;;;;57.35;27.40;;;;;;;-3.14;100.00;97425.59;4097179;28;20062;-71
2021/12/27 06:41:12;;;;;;;54.50;26.52;;;;;;;-3.13;100.00;97435.31;4096596;28;20470;-71
2021/12/27 06:43:12;;;;;;;49.95;25.70;;;;;;;-3.16;100.00;97422.38;4096850;28;20334;-71
2021/12/27 06:45:13;;;;;;;46.00;24.25;;;;;;;-3.16;100.00;97429.69;4095229;28;20154;-71
2021/12/27 06:47:13;;;;;;;51.70;25.23;;;;;;;-3.17;100.00;97423.50;4105426;28;20442;-71
2021/12/27 06:49:14;;;;;;;48.67;23.25;;;;;;;-3.17;100.00;97420.00;4109432;28;20112;-71
2021/12/27 06:51:15;;;;;;;49.42;23.40;;;;;;;-3.15;100.00;97417.75;4095139;28;20487;-71
2021/12/27 06:53:16;;;;;;;45.90;24.85;;;;;;;-3.13;100.00;97421.78;4097330;28;20098;-71
2021/12/27 06:55:16;;;;;;;48.25;22.98;;;;;;;-3.13;100.00;97427.19;4097289;28;20044;-71
2021/12/27 06:57:18;;;;;;;51.33;24.52;;;;;;;-3.14;100.00;97424.78;4094978;28;20047;-71
2021/12/27 06:59:19;;;;;;;52.92;24.38;;;;;;;-3.15;100.00;97413.16;4090424;28;20050;-71
2021/12/27 07:01:19;;;;;;;52.10;24.17;;;;;;;-3.11;100.00;97416.03;4090819;28;20531;-71
2021/12/27 07:03:20;;;;;;;57.75;24.85;;;;;;;-3.11;100.00;97418.75;4089189;28;20047;-71
2021/12/27 07:05:20;;;;;;;49.78;24.20;;;;;;;-3.11;100.00;97408.72;4090737;28;20407;-71
2021/12/27 07:07:21;;;;;;;56.40;25.73;;;;;;;-3.09;100.00;97410.31;4087443;28;20454;-71
2021/12/27 07:09:21;;;;;;;56.88;28.58;;;;;;;-3.08;100.00;97417.31;4089143;28;20051;-71
2021/12/27 07:11:22;;;;;;;53.55;25.65;;;;;;;-3.07;100.00;97417.00;4089077;28;20055;-71
2021/12/27 07:13:23;;;;;;;57.00;28.08;;;;;;;-3.08;100.00;97423.53;4089244;28;20050;-71
2021/12/27 07:15:23;;;;;;;45.25;23.88;;;;;;;-3.09;100.00;97426.53;4088279;28;20055;-71
2021/12/27 07:17:24;;;;;;;55.63;26.13;;;;;;;-3.10;100.00;97425.75;4088081;28;20293;-71
2021/12/27 07:19:24;;;;;;;50.75;24.73;;;;;;;-3.11;100.00;97427.66;4088171;28;20051;-71
2021/12/27 07:21:24;;;;;;;57.45;27.40;;;;;;;-3.09;100.00;97429.25;4089403;28;20394;-70
2021/12/27 07:23:25;;;;;;;49.15;25.40;;;;;;;-3.06;100.00;97423.19;4087757;28;20043;-71
2021/12/27 07:25:25;;;;;;;52.83;24.55;;;;;;;-3.06;100.00;97424.03;4088375;28;20054;-71
2021/12/27 07:27:26;;;;;;;53.70;27.25;;;;;;;-3.04;100.00;97432.63;4091613;28;20448;-71
2021/12/27 07:29:27;;;;;;;63.38;26.95;;;;;;;-3.02;100.00;97435.00;4090916;28;20412;-71
2021/12/27 07:31:27;;;;;;;45.42;24.75;;;;;;;-3.00;100.00;97425.44;4089375;28;20058;-71
2021/12/27 07:33:28;;;;;;;47.65;25.17;;;;;;;-2.98;100.00;97428.66;4088805;28;20059;-71
2021/12/27 07:35:28;;;;;;;52.22;24.75;;;;;;;-2.97;100.00;97422.13;4088591;28;20059;-71
2021/12/27 07:37:29;;;;;;;46.08;24.70;;;;;;;-2.96;100.00;97426.44;4093624;28;20054;-71
2021/12/27 07:39:29;;;;;;;55.05;27.00;;;;;;;-2.95;100.00;97435.34;4087670;28;20035;-71
2021/12/27 07:41:29;;;;;;;53.47;26.25;;;;;;;-2.96;100.00;97423.72;4090869;28;20047;-71
2021/12/27 07:43:30;;;;;;;55.55;27.30;;;;;;;-2.91;100.00;97433.59;4096840;28;20124;-71
2021/12/27 07:45:30;;;;;;;55.28;27.75;;;;;;;-2.90;100.00;97432.47;4090200;28;20039;-71
2021/12/27 07:47:31;;;;;;;58.25;26.98;;;;;;;-2.88;100.00;97425.66;4087449;28;20051;-71
2021/12/27 07:49:32;;;;;;;55.40;27.77;;;;;;;-2.86;100.00;97426.13;4090828;28;20105;-71
2021/12/27 07:51:32;;;;;;;54.53;28.85;;;;;;;-2.83;100.00;97419.25;4088271;28;20301;-71
2021/12/27 07:53:33;;;;;;;61.45;28.23;;;;;;;-2.77;100.00;97419.91;4087210;28;20108;-71
2021/12/27 07:55:33;;;;;;;52.13;28.25;;;;;;;-2.75;100.00;97426.59;4088407;28;20043;-71
2021/12/27 07:57:34;;;;;;;57.47;26.40;;;;;;;-2.75;100.00;97418.47;4089107;28;20051;-71
2021/12/27 07:59:34;;;;;;;51.28;26.98;;;;;;;-2.76;100.00;97419.59;4089890;28;20101;-71
2021/12/27 08:01:36;;;;;;;53.17;24.13;;;;;;;-2.76;100.00;97410.69;4087689;28;20047;-71
2021/12/27 08:03:36;;;;;;;53.78;26.27;;;;;;;-2.70;100.00;97420.25;4093266;28;20047;-71
2021/12/27 08:05:37;;;;;;;52.95;25.25;;;;;;;-2.68;100.00;97416.09;4087380;28;20070;-71
2021/12/27 08:07:37;;;;;;;58.78;27.63;;;;;;;-2.66;100.00;97423.91;4086753;28;20073;-71
2021/12/27 08:09:38;;;;;;;54.63;28.92;;;;;;;-2.68;100.00;97418.00;4092599;28;20048;-71
2021/12/27 08:11:39;;;;;;;51.65;27.23;;;;;;;-2.65;100.00;97420.91;4088162;28;20043;-71
2021/12/27 08:13:42;;;;;;;60.83;29.23;;;;;;;-2.62;100.00;97424.88;4093734;28;20055;-71
2021/12/27 08:15:42;;;;;;;61.97;30.45;;;;;;;-2.59;100.00;97421.53;4091359;28;20487;-71
2021/12/27 08:17:43;;;;;;;54.80;30.45;;;;;;;-2.55;100.00;97415.16;4090899;28;20050;-71
2021/12/27 08:19:45;;;;;;;59.08;29.70;;;;;;;-2.50;100.00;97414.19;4091538;28;20706;-71
2021/12/27 08:21:45;;;;;;;58.80;29.55;;;;;;;-2.47;100.00;97419.00;4090841;28;20153;-71
2021/12/27 08:23:46;;;;;;;63.88;34.35;;;;;;;-2.45;100.00;97422.19;4088593;28;20494;-71
2021/12/27 08:25:46;;;;;;;65.72;28.17;;;;;;;-2.44;100.00;97412.94;4092164;28;20055;-71
2021/12/27 08:27:47;;;;;;;56.67;27.63;;;;;;;-2.37;100.00;97415.16;4086991;28;20050;-71
2021/12/27 08:29:48;;;;;;;50.65;26.42;;;;;;;-2.33;100.00;97427.72;4088026;28;20242;-70
2021/12/27 08:31:48;;;;;;;60.78;30.52;;;;;;;-2.28;100.00;97424.88;4089763;28;20051;-71
2021/12/27 08:33:49;;;;;;;58.72;29.70;;;;;;;-2.25;100.00;97415.31;4088554;28;20039;-71
2021/12/27 08:35:49;;;;;;;63.58;30.98;;;;;;;-2.22;100.00;97411.16;4086626;28;20047;-71
2021/12/27 08:37:50;;;;;;;56.20;28.17;;;;;;;-2.17;100.00;97411.00;4088164;28;20054;-71
2021/12/27 08:39:50;;;;;;;57.55;28.67;;;;;;;-2.12;100.00;97413.53;4087111;28;20040;-71
2021/12/27 08:41:51;;;;;;;72.95;34.58;;;;;;;-2.11;100.00;97421.34;4087227;28;20491;-71
2021/12/27 08:43:51;;;;;;;63.40;32.67;;;;;;;-2.10;100.00;97416.72;4087722;28;20047;-71
2021/12/27 08:45:53;;;;;;;65.72;32.75;;;;;;;-2.05;100.00;97422.00;4092679;28;20453;-71
2021/12/27 08:47:53;;;;;;;88.75;41.28;;;;;;;-2.01;100.00;97421.00;4090610;28;20458;-71
2021/12/27 08:49:53;;;;;;;81.63;38.22;;;;;;;-2.01;100.00;97418.28;4092257;28;20043;-71
2021/12/27 08:51:54;;;;;;;73.80;35.28;;;;;;;-1.99;100.00;97418.78;4098923;28;20495;-71
2021/12/27 08:53:54;;;;;;;63.00;33.63;;;;;;;-1.98;100.00;97409.53;4096862;28;20048;-71
2021/12/27 08:55:54;;;;;;;70.35;34.25;;;;;;;-2.00;100.00;97409.03;4088624;28;20051;-71
2021/12/27 08:57:55;;;;;;;58.20;28.15;;;;;;;-1.98;100.00;97406.81;4090794;28;20082;-71
2021/12/27 08:59:55;;;;;;;65.57;33.38;;;;;;;-1.96;100.00;97420.06;4091236;28;20051;-71
2021/12/27 09:01:56;;;;;;;69.28;34.13;;;;;;;-1.96;100.00;97411.91;4107656;28;20047;-71
2021/12/27 09:03:56;;;;;;;72.63;35.22;;;;;;;-1.97;100.00;97402.19;4096234;28;20047;-71
2021/12/27 09:05:57;;;;;;;56.47;30.35;;;;;;;-1.95;100.00;97407.28;4090538;28;20040;-71
2021/12/27 09:07:57;;;;;;;56.58;27.52;;;;;;;-1.97;100.00;97407.63;4086370;28;20055;-71
2021/12/27 09:09:58;;;;;;;53.88;27.45;;;;;;;-1.93;100.00;97410.47;4088067;28;20439;-71
2021/12/27 09:11:59;;;;;;;59.53;28.70;;;;;;;-1.89;100.00;97406.81;4087453;28;20082;-71
2021/12/27 09:14:00;;;;;;;61.15;27.90;;;;;;;-1.84;100.00;97411.25;4088274;28;20487;-71